sensor_id;sensor_type;location;lat;lon;timestamp;pressure;altitude;pressure_sealevel;temperature;humidity
4528;BME280;62320;51.520;6.818;2023-04-29T00:09:37;100833.34;;;12.72;95.71
4528;BME280;62320;51.520;6.818;2023-04-29T00:19:39;100835.13;;;12.64;96.01
4528;BME280;62320;51.520;6.818;2023-04-29T00:29:40;100851.66;;;12.54;96.22
4528;BME280;62320;51.520;6.818;2023-04-29T00:39:41;100866.41;;;12.44;96.13
4528;BME280;62320;51.520;6.818;2023-04-29T00:49:43;100876.81;;;12.34;96.08
4528;BME280;62320;51.520;6.818;2023-04-29T00:59:45;100878.53;;;12.35;95.69
4528;BME280;62320;51.520;6.818;2023-04-29T01:10:09;100889.81;;;12.28;95.87
4528;BME280;62320;51.520;6.818;2023-04-29T01:20:11;100901.09;;;12.13;96.39
4528;BME280;62320;51.520;6.818;2023-04-29T01:40:42;100933.22;;;11.70;98.53
4528;BME280;62320;51.520;6.818;2023-04-29T01:50:47;100933.19;;;11.65;96.50
4528;BME280;62320;51.520;6.818;2023-04-29T02:00:48;100940.97;;;11.58;96.89
4528;BME280;62320;51.520;6.818;2023-04-29T02:10:53;100947.88;;;11.45;97.31
4528;BME280;62320;51.520;6.818;2023-04-29T02:20:59;100951.34;;;11.44;96.58
4528;BME280;62320;51.520;6.818;2023-04-29T02:31:01;100968.59;;;11.42;95.84
4528;BME280;62320;51.520;6.818;2023-04-29T02:41:03;100971.19;;;11.31;96.67
4528;BME280;62320;51.520;6.818;2023-04-29T02:51:04;100976.38;;;11.28;96.64
4528;BME280;62320;51.520;6.818;2023-04-29T03:01:06;100992.75;;;11.12;98.03
4528;BME280;62320;51.520;6.818;2023-04-29T03:11:08;100994.44;;;11.09;98.10
4528;BME280;62320;51.520;6.818;2023-04-29T03:21:09;101003.94;;;11.05;97.50
4528;BME280;62320;51.520;6.818;2023-04-29T03:31:11;101003.94;;;11.07;97.42
4528;BME280;62320;51.520;6.818;2023-04-29T03:41:12;101026.34;;;11.02;96.95
4528;BME280;62320;51.520;6.818;2023-04-29T03:51:14;101027.19;;;10.92;98.06
4528;BME280;62320;51.520;6.818;2023-04-29T04:01:15;101028.91;;;10.91;98.03
4528;BME280;62320;51.520;6.818;2023-04-29T04:11:16;101046.13;;;10.79;100.00
4528;BME280;62320;51.520;6.818;2023-04-29T04:21:18;101052.19;;;10.81;98.54
4528;BME280;62320;51.520;6.818;2023-04-29T04:31:19;101068.56;;;10.77;98.70
4528;BME280;62320;51.520;6.818;2023-04-29T04:41:21;101072.84;;;10.71;99.02
4528;BME280;62320;51.520;6.818;2023-04-29T04:51:22;101084.88;;;10.71;98.77
4528;BME280;62320;51.520;6.818;2023-04-29T05:01:24;101091.78;;;10.67;97.19
4528;BME280;62320;51.520;6.818;2023-04-29T05:11:25;101111.59;;;10.68;97.53
4528;BME280;62320;51.520;6.818;2023-04-29T05:21:27;101115.94;;;10.69;98.98
4528;BME280;62320;51.520;6.818;2023-04-29T05:31:28;101133.16;;;10.67;99.13
4528;BME280;62320;51.520;6.818;2023-04-29T05:41:29;101142.66;;;10.71;98.05
4528;BME280;62320;51.520;6.818;2023-04-29T05:51:31;101151.25;;;10.66;98.31
4528;BME280;62320;51.520;6.818;2023-04-29T06:01:33;101167.66;;;10.72;98.89
4528;BME280;62320;51.520;6.818;2023-04-29T06:11:34;101181.47;;;10.79;97.71
4528;BME280;62320;51.520;6.818;2023-04-29T06:21:36;101188.38;;;10.75;97.67
4528;BME280;62320;51.520;6.818;2023-04-29T06:31:38;101205.59;;;10.73;98.57
4528;BME280;62320;51.520;6.818;2023-04-29T06:41:40;101228.91;;;10.78;97.84
4528;BME280;62320;51.520;6.818;2023-04-29T06:51:41;101233.28;;;10.87;97.32
4528;BME280;62320;51.520;6.818;2023-04-29T07:01:43;101235.91;;;10.90;97.99
4528;BME280;62320;51.520;6.818;2023-04-29T07:11:46;101244.53;;;10.92;98.55
4528;BME280;62320;51.520;6.818;2023-04-29T07:21:47;101265.25;;;10.98;97.13
4528;BME280;62320;51.520;6.818;2023-04-29T07:31:49;101286.63;;;10.72;100.00
4528;BME280;62320;51.520;6.818;2023-04-29T07:41:50;101306.66;;;10.98;98.33
4528;BME280;62320;51.520;6.818;2023-04-29T07:51:52;101321.34;;;11.00;97.10
4528;BME280;62320;51.520;6.818;2023-04-29T08:01:54;101317.78;;;10.83;98.64
4528;BME280;62320;51.520;6.818;2023-04-29T08:11:55;101334.25;;;10.94;97.41
4528;BME280;62320;51.520;6.818;2023-04-29T08:21:57;101347.19;;;10.94;97.95
4528;BME280;62320;51.520;6.818;2023-04-29T08:31:59;101352.31;;;10.93;97.83
4528;BME280;62320;51.520;6.818;2023-04-29T08:42:07;101362.66;;;10.93;98.44
4528;BME280;62320;51.520;6.818;2023-04-29T08:52:08;101367.94;;;11.06;97.86
4528;BME280;62320;51.520;6.818;2023-04-29T09:02:12;101377.50;;;11.12;98.46
4528;BME280;62320;51.520;6.818;2023-04-29T09:12:17;101391.34;;;11.20;97.23
4528;BME280;62320;51.520;6.818;2023-04-29T09:22:19;101393.97;;;11.24;97.41
4528;BME280;62320;51.520;6.818;2023-04-29T09:32:21;101415.72;;;11.46;95.84
4528;BME280;62320;51.520;6.818;2023-04-29T09:42:22;101420.13;;;11.59;94.70
4528;BME280;62320;51.520;6.818;2023-04-29T09:52:24;101421.94;;;11.71;95.26
4528;BME280;62320;51.520;6.818;2023-04-29T10:02:26;101423.78;;;11.93;93.63
4528;BME280;62320;51.520;6.818;2023-04-29T10:12:27;101440.31;;;12.14;93.46
4528;BME280;62320;51.520;6.818;2023-04-29T10:22:49;101440.44;;;12.40;92.11
4528;BME280;62320;51.520;6.818;2023-04-29T10:32:51;101440.47;;;12.61;92.02
4528;BME280;62320;51.520;6.818;2023-04-29T10:42:53;101444.88;;;12.89;89.77
4528;BME280;62320;51.520;6.818;2023-04-29T10:52:55;101455.28;;;13.18;88.17
4528;BME280;62320;51.520;6.818;2023-04-29T11:02:59;101453.56;;;13.41;88.01
4528;BME280;62320;51.520;6.818;2023-04-29T11:13:40;101463.06;;;13.54;88.95
4528;BME280;62320;51.520;6.818;2023-04-29T11:23:41;101454.31;;;13.99;84.34
4528;BME280;62320;51.520;6.818;2023-04-29T11:33:43;101468.97;;;14.20;85.11
4528;BME280;62320;51.520;6.818;2023-04-29T11:43:45;101475.88;;;14.36;83.77
4528;BME280;62320;51.520;6.818;2023-04-29T11:53:47;101470.63;;;14.51;82.28
4528;BME280;62320;51.520;6.818;2023-04-29T12:03:48;101464.44;;;14.73;80.76
4528;BME280;62320;51.520;6.818;2023-04-29T12:13:51;101466.22;;;14.64;80.60
4528;BME280;62320;51.520;6.818;2023-04-29T12:23:53;101468.81;;;14.61;81.48
4528;BME280;62320;51.520;6.818;2023-04-29T12:33:55;101474.81;;;14.81;77.52
4528;BME280;62320;51.520;6.818;2023-04-29T12:43:57;101480.06;;;14.76;79.53
4528;BME280;62320;51.520;6.818;2023-04-29T12:54:00;101484.38;;;14.76;78.32
4528;BME280;62320;51.520;6.818;2023-04-29T13:04:02;101485.19;;;14.84;75.67
4528;BME280;62320;51.520;6.818;2023-04-29T13:14:05;101480.72;;;15.06;74.85
4528;BME280;62320;51.520;6.818;2023-04-29T13:24:07;101495.47;;;15.08;75.06
4528;BME280;62320;51.520;6.818;2023-04-29T13:34:10;101487.56;;;15.19;75.51
4528;BME280;62320;51.520;6.818;2023-04-29T13:44:11;101495.38;;;15.22;78.52
4528;BME280;62320;51.520;6.818;2023-04-29T13:54:16;101495.13;;;15.55;71.89
4528;BME280;62320;51.520;6.818;2023-04-29T14:04:39;101502.88;;;15.62;77.34
4528;BME280;62320;51.520;6.818;2023-04-29T14:14:41;101491.53;;;15.66;72.00
4528;BME280;62320;51.520;6.818;2023-04-29T14:24:42;101495.91;;;15.64;72.45
4528;BME280;62320;51.520;6.818;2023-04-29T14:34:44;101506.34;;;15.61;77.23
4528;BME280;62320;51.520;6.818;2023-04-29T14:44:45;101518.28;;;15.90;70.96
4528;BME280;62320;51.520;6.818;2023-04-29T14:54:47;101527.09;;;15.78;70.68
4528;BME280;62320;51.520;6.818;2023-04-29T15:04:48;101521.81;;;15.83;70.13
4528;BME280;62320;51.520;6.818;2023-04-29T15:14:50;101531.47;;;15.73;67.47
4528;BME280;62320;51.520;6.818;2023-04-29T15:24:53;101523.56;;;15.79;72.42
4528;BME280;62320;51.520;6.818;2023-04-29T15:34:55;101524.44;;;15.83;72.99
4528;BME280;62320;51.520;6.818;2023-04-29T15:44:56;101531.34;;;15.84;69.89
4528;BME280;62320;51.520;6.818;2023-04-29T15:54:58;101548.00;;;15.70;69.62
4528;BME280;62320;51.520;6.818;2023-04-29T16:04:59;101550.66;;;15.66;70.15
4528;BME280;62320;51.520;6.818;2023-04-29T16:15:00;101558.47;;;15.63;73.22
4528;BME280;62320;51.520;6.818;2023-04-29T16:25:02;101560.28;;;15.56;73.37
4528;BME280;62320;51.520;6.818;2023-04-29T16:35:04;101559.44;;;15.56;73.56
4528;BME280;62320;51.520;6.818;2023-04-29T16:45:07;101558.56;;;15.52;73.14
4528;BME280;62320;51.520;6.818;2023-04-29T16:55:09;101565.53;;;15.53;71.22
4528;BME280;62320;51.520;6.818;2023-04-29T17:05:12;101572.50;;;15.48;71.46
4528;BME280;62320;51.520;6.818;2023-04-29T17:15:14;101565.63;;;15.34;71.34
4528;BME280;62320;51.520;6.818;2023-04-29T17:25:16;101572.66;;;15.23;71.83
4528;BME280;62320;51.520;6.818;2023-04-29T17:35:18;101570.06;;;15.15;73.93
4528;BME280;62320;51.520;6.818;2023-04-29T17:45:19;101571.00;;;15.08;73.13
4528;BME280;62320;51.520;6.818;2023-04-29T17:55:21;101572.78;;;15.03;73.43
4528;BME280;62320;51.520;6.818;2023-04-29T18:05:22;101585.81;;;14.97;73.49
4528;BME280;62320;51.520;6.818;2023-04-29T18:15:24;101587.59;;;14.89;73.42
4528;BME280;62320;51.520;6.818;2023-04-29T18:25:25;101587.63;;;14.87;74.87
4528;BME280;62320;51.520;6.818;2023-04-29T18:35:27;101588.50;;;14.77;74.82
4528;BME280;62320;51.520;6.818;2023-04-29T18:45:28;101588.53;;;14.71;75.56
4528;BME280;62320;51.520;6.818;2023-04-29T18:55:30;101596.38;;;14.64;76.23
4528;BME280;62320;51.520;6.818;2023-04-29T19:05:31;101602.53;;;14.42;76.64
4528;BME280;62320;51.520;6.818;2023-04-29T19:15:33;101612.91;;;14.26;78.13
4528;BME280;62320;51.520;6.818;2023-04-29T19:25:35;101628.56;;;14.05;79.25
4528;BME280;62320;51.520;6.818;2023-04-29T19:35:36;101628.56;;;13.78;81.36
4528;BME280;62320;51.520;6.818;2023-04-29T19:45:38;101628.53;;;13.55;79.96
4528;BME280;62320;51.520;6.818;2023-04-29T19:55:40;101630.22;;;13.43;80.31
4528;BME280;62320;51.520;6.818;2023-04-29T20:05:41;101639.69;;;13.23;81.03
4528;BME280;62320;51.520;6.818;2023-04-29T20:15:43;101664.66;;;13.00;82.59
4528;BME280;62320;51.520;6.818;2023-04-29T20:25:44;101676.91;;;13.14;80.46
4528;BME280;62320;51.520;6.818;2023-04-29T20:35:46;101678.50;;;12.96;76.23
4528;BME280;62320;51.520;6.818;2023-04-29T20:45:48;101695.66;;;12.68;76.41
4528;BME280;62320;51.520;6.818;2023-04-29T20:55:50;101697.34;;;12.58;77.26
4528;BME280;62320;51.520;6.818;2023-04-29T21:05:52;101705.84;;;12.39;77.83
4528;BME280;62320;51.520;6.818;2023-04-29T21:15:54;101697.97;;;12.32;77.03
4528;BME280;62320;51.520;6.818;2023-04-29T21:25:56;101718.53;;;12.06;77.30
4528;BME280;62320;51.520;6.818;2023-04-29T21:35:57;101723.97;;;11.52;78.77
4528;BME280;62320;51.520;6.818;2023-04-29T21:46:00;101734.38;;;11.57;78.40
4528;BME280;62320;51.520;6.818;2023-04-29T21:56:01;101742.19;;;11.60;78.53
4528;BME280;62320;51.520;6.818;2023-04-29T22:06:03;101742.63;;;11.25;80.29
4528;BME280;62320;51.520;6.818;2023-04-29T22:16:05;101756.03;;;10.97;81.59
4528;BME280;62320;51.520;6.818;2023-04-29T22:26:07;101770.81;;;11.04;81.67
4528;BME280;62320;51.520;6.818;2023-04-29T22:36:08;101779.66;;;10.60;84.44
4528;BME280;62320;51.520;6.818;2023-04-29T22:46:09;101779.59;;;10.57;83.48
4528;BME280;62320;51.520;6.818;2023-04-29T22:56:12;101784.44;;;10.37;84.69
4528;BME280;62320;51.520;6.818;2023-04-29T23:06:14;101790.41;;;10.35;84.88
4528;BME280;62320;51.520;6.818;2023-04-29T23:16:15;101806.59;;;10.25;84.85
4528;BME280;62320;51.520;6.818;2023-04-29T23:26:17;101823.56;;;10.11;86.10
4528;BME280;62320;51.520;6.818;2023-04-29T23:36:18;101825.13;;;10.04;83.65
4528;BME280;62320;51.520;6.818;2023-04-29T23:46:20;101815.88;;;10.12;84.67
4528;BME280;62320;51.520;6.818;2023-04-29T23:56:21;101827.88;;;9.68;86.68
